Eastaboga, Alabama
Current Conditions -  °F | °C
As of 10:15 PM on Tuesday 25 Nov 2014 (Local Time) from KASN Reporting Station
Broken Clouds Broken Clouds  
Wind Chill: 50°   Ceiling: 12000
Heat Index: 50°   Visibility: 10mi
Dew Point: 32°   Wind: 6mph
Humidity: 50%   Direction: 300°WNW
Pressure: 30.11"   Gusts: NA
Location:  33.61°N, 86.02°W
Report Text: KASN 260415Z AUTO 30005KT 10SM BKN120 10/00 A3011 RMK AO2 T01000000
Loading
Personal Weather Stations






























Interactive Weather Map New forecast layout! Learn more

10-Day Weather Forecast

Advertisements
Track Severe Weather on mobile